sensor_id;sensor_type;location;lat;lon;timestamp;P1;durP1;ratioP1;P2;durP2;ratioP2
32697;SDS011;19087;51.062;3.754;2023-08-24T00:02:17;0.10;;;0.10;;
32697;SDS011;19087;51.062;3.754;2023-08-24T00:04:45;0.10;;;0.10;;
32697;SDS011;19087;51.062;3.754;2023-08-24T00:07:12;0.10;;;0.10;;
32697;SDS011;19087;51.062;3.754;2023-08-24T00:09:37;0.10;;;0.10;;
32697;SDS011;19087;51.062;3.754;2023-08-24T00:12:03;0.10;;;0.10;;
32697;SDS011;19087;51.062;3.754;2023-08-24T00:14:31;0.13;;;0.13;;
32697;SDS011;19087;51.062;3.754;2023-08-24T00:16:58;0.10;;;0.10;;
32697;SDS011;19087;51.062;3.754;2023-08-24T00:19:25;0.10;;;0.10;;
32697;SDS011;19087;51.062;3.754;2023-08-24T00:21:52;0.10;;;0.10;;
32697;SDS011;19087;51.062;3.754;2023-08-24T00:24:19;0.10;;;0.10;;
32697;SDS011;19087;51.062;3.754;2023-08-24T00:26:47;0.10;;;0.10;;
32697;SDS011;19087;51.062;3.754;2023-08-24T00:29:12;0.10;;;0.10;;
32697;SDS011;19087;51.062;3.754;2023-08-24T00:31:38;0.10;;;0.10;;
32697;SDS011;19087;51.062;3.754;2023-08-24T00:34:05;0.10;;;0.10;;
32697;SDS011;19087;51.062;3.754;2023-08-24T00:36:31;0.10;;;0.10;;
32697;SDS011;19087;51.062;3.754;2023-08-24T00:38:56;0.10;;;0.10;;
32697;SDS011;19087;51.062;3.754;2023-08-24T00:41:22;0.10;;;0.10;;
32697;SDS011;19087;51.062;3.754;2023-08-24T00:43:56;0.10;;;0.10;;
32697;SDS011;19087;51.062;3.754;2023-08-24T00:46:25;0.10;;;0.10;;
32697;SDS011;19087;51.062;3.754;2023-08-24T00:48:53;0.10;;;0.10;;
32697;SDS011;19087;51.062;3.754;2023-08-24T00:51:28;0.10;;;0.10;;
32697;SDS011;19087;51.062;3.754;2023-08-24T00:53:57;0.10;;;0.10;;
32697;SDS011;19087;51.062;3.754;2023-08-24T00:56:23;0.10;;;0.10;;
32697;SDS011;19087;51.062;3.754;2023-08-24T00:58:51;0.10;;;0.10;;
32697;SDS011;19087;51.062;3.754;2023-08-24T01:01:20;0.10;;;0.10;;
32697;SDS011;19087;51.062;3.754;2023-08-24T01:03:46;0.10;;;0.10;;
32697;SDS011;19087;51.062;3.754;2023-08-24T01:06:11;0.10;;;0.10;;
32697;SDS011;19087;51.062;3.754;2023-08-24T01:08:37;0.10;;;0.10;;
32697;SDS011;19087;51.062;3.754;2023-08-24T01:16:34;0.10;;;0.10;;
32697;SDS011;19087;51.062;3.754;2023-08-24T01:19:06;0.10;;;0.10;;
32697;SDS011;19087;51.062;3.754;2023-08-24T01:21:37;0.15;;;0.15;;
32697;SDS011;19087;51.062;3.754;2023-08-24T01:24:04;0.10;;;0.10;;
32697;SDS011;19087;51.062;3.754;2023-08-24T01:26:40;0.10;;;0.10;;
32697;SDS011;19087;51.062;3.754;2023-08-24T01:29:09;0.10;;;0.10;;
32697;SDS011;19087;51.062;3.754;2023-08-24T01:31:35;0.20;;;0.20;;
32697;SDS011;19087;51.062;3.754;2023-08-24T01:34:04;0.10;;;0.10;;
32697;SDS011;19087;51.062;3.754;2023-08-24T01:36:33;0.10;;;0.10;;
32697;SDS011;19087;51.062;3.754;2023-08-24T01:39:06;0.10;;;0.10;;
32697;SDS011;19087;51.062;3.754;2023-08-24T01:41:38;0.20;;;0.20;;
32697;SDS011;19087;51.062;3.754;2023-08-24T01:44:09;0.10;;;0.10;;
32697;SDS011;19087;51.062;3.754;2023-08-24T01:46:38;0.10;;;0.10;;
32697;SDS011;19087;51.062;3.754;2023-08-24T01:49:11;0.15;;;0.15;;
32697;SDS011;19087;51.062;3.754;2023-08-24T01:51:39;0.20;;;0.20;;
32697;SDS011;19087;51.062;3.754;2023-08-24T01:54:10;0.20;;;0.20;;
32697;SDS011;19087;51.062;3.754;2023-08-24T01:56:37;0.17;;;0.17;;
32697;SDS011;19087;51.062;3.754;2023-08-24T01:59:04;0.13;;;0.13;;
32697;SDS011;19087;51.062;3.754;2023-08-24T02:01:30;0.10;;;0.10;;
32697;SDS011;19087;51.062;3.754;2023-08-24T02:03:57;0.20;;;0.20;;
32697;SDS011;19087;51.062;3.754;2023-08-24T02:06:25;0.10;;;0.10;;
32697;SDS011;19087;51.062;3.754;2023-08-24T02:08:52;0.20;;;0.20;;
32697;SDS011;19087;51.062;3.754;2023-08-24T02:11:18;0.20;;;0.20;;
32697;SDS011;19087;51.062;3.754;2023-08-24T02:13:44;0.15;;;0.15;;
32697;SDS011;19087;51.062;3.754;2023-08-24T02:16:10;0.10;;;0.10;;
32697;SDS011;19087;51.062;3.754;2023-08-24T02:18:38;0.20;;;0.20;;
32697;SDS011;19087;51.062;3.754;2023-08-24T02:21:08;0.10;;;0.10;;
32697;SDS011;19087;51.062;3.754;2023-08-24T02:23:37;0.10;;;0.10;;
32697;SDS011;19087;51.062;3.754;2023-08-24T02:26:07;0.10;;;0.10;;
32697;SDS011;19087;51.062;3.754;2023-08-24T02:28:34;0.10;;;0.10;;
32697;SDS011;19087;51.062;3.754;2023-08-24T02:31:02;0.20;;;0.20;;
32697;SDS011;19087;51.062;3.754;2023-08-24T02:33:30;0.20;;;0.20;;
32697;SDS011;19087;51.062;3.754;2023-08-24T02:35:57;0.17;;;0.17;;
32697;SDS011;19087;51.062;3.754;2023-08-24T02:38:23;0.10;;;0.10;;
32697;SDS011;19087;51.062;3.754;2023-08-24T02:40:49;0.20;;;0.20;;
32697;SDS011;19087;51.062;3.754;2023-08-24T02:43:25;0.20;;;0.20;;
32697;SDS011;19087;51.062;3.754;2023-08-24T02:45:52;0.20;;;0.20;;
32697;SDS011;19087;51.062;3.754;2023-08-24T02:48:20;0.10;;;0.10;;
32697;SDS011;19087;51.062;3.754;2023-08-24T02:50:49;0.10;;;0.10;;
32697;SDS011;19087;51.062;3.754;2023-08-24T02:53:16;0.10;;;0.10;;
32697;SDS011;19087;51.062;3.754;2023-08-24T02:55:41;0.10;;;0.10;;
32697;SDS011;19087;51.062;3.754;2023-08-24T02:58:10;0.10;;;0.10;;
32697;SDS011;19087;51.062;3.754;2023-08-24T03:00:41;0.10;;;0.10;;
32697;SDS011;19087;51.062;3.754;2023-08-24T03:03:07;0.10;;;0.10;;
32697;SDS011;19087;51.062;3.754;2023-08-24T03:05:33;0.20;;;0.20;;
32697;SDS011;19087;51.062;3.754;2023-08-24T03:07:59;0.10;;;0.10;;
32697;SDS011;19087;51.062;3.754;2023-08-24T03:10:26;0.20;;;0.20;;
32697;SDS011;19087;51.062;3.754;2023-08-24T03:12:53;0.20;;;0.20;;
32697;SDS011;19087;51.062;3.754;2023-08-24T03:15:18;0.20;;;0.20;;
32697;SDS011;19087;51.062;3.754;2023-08-24T03:17:46;0.10;;;0.10;;
32697;SDS011;19087;51.062;3.754;2023-08-24T03:20:12;0.10;;;0.10;;
32697;SDS011;19087;51.062;3.754;2023-08-24T03:22:40;0.10;;;0.10;;
32697;SDS011;19087;51.062;3.754;2023-08-24T03:25:08;0.13;;;0.13;;
32697;SDS011;19087;51.062;3.754;2023-08-24T03:27:34;0.20;;;0.20;;
32697;SDS011;19087;51.062;3.754;2023-08-24T03:30:00;0.10;;;0.10;;
32697;SDS011;19087;51.062;3.754;2023-08-24T03:32:29;0.10;;;0.10;;
32697;SDS011;19087;51.062;3.754;2023-08-24T03:35:00;0.10;;;0.10;;
32697;SDS011;19087;51.062;3.754;2023-08-24T03:37:30;0.20;;;0.20;;
32697;SDS011;19087;51.062;3.754;2023-08-24T03:39:57;0.10;;;0.10;;
32697;SDS011;19087;51.062;3.754;2023-08-24T03:42:22;0.10;;;0.10;;
32697;SDS011;19087;51.062;3.754;2023-08-24T03:44:48;0.20;;;0.20;;
32697;SDS011;19087;51.062;3.754;2023-08-24T03:47:14;0.10;;;0.10;;
32697;SDS011;19087;51.062;3.754;2023-08-24T03:49:43;0.10;;;0.10;;
32697;SDS011;19087;51.062;3.754;2023-08-24T03:52:10;0.20;;;0.20;;
32697;SDS011;19087;51.062;3.754;2023-08-24T03:54:36;0.10;;;0.10;;
32697;SDS011;19087;51.062;3.754;2023-08-24T03:57:03;0.20;;;0.20;;
32697;SDS011;19087;51.062;3.754;2023-08-24T03:59:29;0.10;;;0.10;;
32697;SDS011;19087;51.062;3.754;2023-08-24T04:01:56;0.20;;;0.20;;
32697;SDS011;19087;51.062;3.754;2023-08-24T04:04:31;0.10;;;0.10;;
32697;SDS011;19087;51.062;3.754;2023-08-24T04:09:30;0.10;;;0.10;;
32697;SDS011;19087;51.062;3.754;2023-08-24T04:11:58;0.10;;;0.10;;
32697;SDS011;19087;51.062;3.754;2023-08-24T04:14:24;0.20;;;0.20;;
32697;SDS011;19087;51.062;3.754;2023-08-24T04:16:50;0.20;;;0.20;;
32697;SDS011;19087;51.062;3.754;2023-08-24T04:19:18;0.20;;;0.20;;
32697;SDS011;19087;51.062;3.754;2023-08-24T04:21:44;0.10;;;0.10;;
32697;SDS011;19087;51.062;3.754;2023-08-24T04:24:21;0.10;;;0.10;;
32697;SDS011;19087;51.062;3.754;2023-08-24T04:26:48;0.20;;;0.20;;
32697;SDS011;19087;51.062;3.754;2023-08-24T04:29:14;0.20;;;0.20;;
32697;SDS011;19087;51.062;3.754;2023-08-24T04:31:40;0.10;;;0.10;;
32697;SDS011;19087;51.062;3.754;2023-08-24T04:34:07;0.10;;;0.10;;
32697;SDS011;19087;51.062;3.754;2023-08-24T04:36:35;0.20;;;0.20;;
32697;SDS011;19087;51.062;3.754;2023-08-24T04:39:02;0.20;;;0.20;;
32697;SDS011;19087;51.062;3.754;2023-08-24T04:41:27;0.10;;;0.10;;
32697;SDS011;19087;51.062;3.754;2023-08-24T04:43:54;0.13;;;0.13;;
32697;SDS011;19087;51.062;3.754;2023-08-24T04:46:21;0.20;;;0.20;;
32697;SDS011;19087;51.062;3.754;2023-08-24T04:48:47;0.20;;;0.20;;
32697;SDS011;19087;51.062;3.754;2023-08-24T04:51:14;0.20;;;0.20;;
32697;SDS011;19087;51.062;3.754;2023-08-24T04:53:40;0.10;;;0.10;;
32697;SDS011;19087;51.062;3.754;2023-08-24T04:56:06;0.20;;;0.20;;
32697;SDS011;19087;51.062;3.754;2023-08-24T04:58:32;0.10;;;0.10;;
32697;SDS011;19087;51.062;3.754;2023-08-24T05:01:00;0.17;;;0.17;;
32697;SDS011;19087;51.062;3.754;2023-08-24T05:03:25;0.20;;;0.20;;
32697;SDS011;19087;51.062;3.754;2023-08-24T05:05:51;0.20;;;0.20;;
32697;SDS011;19087;51.062;3.754;2023-08-24T05:08:17;0.15;;;0.15;;
32697;SDS011;19087;51.062;3.754;2023-08-24T05:10:44;0.15;;;0.15;;
32697;SDS011;19087;51.062;3.754;2023-08-24T05:13:10;0.20;;;0.20;;
32697;SDS011;19087;51.062;3.754;2023-08-24T05:15:37;0.20;;;0.20;;
32697;SDS011;19087;51.062;3.754;2023-08-24T05:18:03;0.10;;;0.10;;
32697;SDS011;19087;51.062;3.754;2023-08-24T05:20:29;0.10;;;0.10;;
32697;SDS011;19087;51.062;3.754;2023-08-24T05:22:55;0.10;;;0.10;;
32697;SDS011;19087;51.062;3.754;2023-08-24T05:25:23;0.20;;;0.20;;
32697;SDS011;19087;51.062;3.754;2023-08-24T05:27:50;0.10;;;0.10;;
32697;SDS011;19087;51.062;3.754;2023-08-24T05:30:15;0.10;;;0.10;;
32697;SDS011;19087;51.062;3.754;2023-08-24T05:32:41;0.10;;;0.10;;
32697;SDS011;19087;51.062;3.754;2023-08-24T05:35:07;0.10;;;0.10;;
32697;SDS011;19087;51.062;3.754;2023-08-24T05:37:34;0.20;;;0.20;;
32697;SDS011;19087;51.062;3.754;2023-08-24T05:40:00;0.20;;;0.20;;
32697;SDS011;19087;51.062;3.754;2023-08-24T05:42:27;0.10;;;0.10;;
32697;SDS011;19087;51.062;3.754;2023-08-24T05:44:53;0.10;;;0.10;;
32697;SDS011;19087;51.062;3.754;2023-08-24T05:47:19;0.20;;;0.20;;
32697;SDS011;19087;51.062;3.754;2023-08-24T05:49:46;0.20;;;0.20;;
32697;SDS011;19087;51.062;3.754;2023-08-24T05:52:13;0.10;;;0.10;;
32697;SDS011;19087;51.062;3.754;2023-08-24T05:54:39;0.10;;;0.10;;
32697;SDS011;19087;51.062;3.754;2023-08-24T05:57:06;0.10;;;0.10;;
32697;SDS011;19087;51.062;3.754;2023-08-24T05:59:32;0.20;;;0.20;;
32697;SDS011;19087;51.062;3.754;2023-08-24T06:01:58;0.10;;;0.10;;
32697;SDS011;19087;51.062;3.754;2023-08-24T06:04:24;0.10;;;0.10;;
32697;SDS011;19087;51.062;3.754;2023-08-24T06:06:50;0.10;;;0.10;;
32697;SDS011;19087;51.062;3.754;2023-08-24T06:09:19;0.10;;;0.10;;
32697;SDS011;19087;51.062;3.754;2023-08-24T06:11:45;0.10;;;0.10;;
32697;SDS011;19087;51.062;3.754;2023-08-24T06:14:11;0.10;;;0.10;;
32697;SDS011;19087;51.062;3.754;2023-08-24T06:16:36;0.20;;;0.20;;
32697;SDS011;19087;51.062;3.754;2023-08-24T06:19:02;0.10;;;0.10;;
32697;SDS011;19087;51.062;3.754;2023-08-24T06:21:28;0.10;;;0.10;;
32697;SDS011;19087;51.062;3.754;2023-08-24T06:23:54;0.10;;;0.10;;
32697;SDS011;19087;51.062;3.754;2023-08-24T06:26:22;0.10;;;0.10;;
32697;SDS011;19087;51.062;3.754;2023-08-24T06:28:48;0.10;;;0.10;;
32697;SDS011;19087;51.062;3.754;2023-08-24T06:31:14;0.10;;;0.10;;
32697;SDS011;19087;51.062;3.754;2023-08-24T06:33:41;0.10;;;0.10;;
32697;SDS011;19087;51.062;3.754;2023-08-24T06:36:07;0.10;;;0.10;;
32697;SDS011;19087;51.062;3.754;2023-08-24T06:38:33;0.10;;;0.10;;
32697;SDS011;19087;51.062;3.754;2023-08-24T06:40:59;0.10;;;0.10;;
32697;SDS011;19087;51.062;3.754;2023-08-24T06:43:26;0.10;;;0.10;;
32697;SDS011;19087;51.062;3.754;2023-08-24T06:45:54;0.00;;;0.00;;
32697;SDS011;19087;51.062;3.754;2023-08-24T06:48:21;0.00;;;0.00;;
32697;SDS011;19087;51.062;3.754;2023-08-24T06:50:47;0.00;;;0.00;;
32697;SDS011;19087;51.062;3.754;2023-08-24T06:53:14;0.00;;;0.00;;
32697;SDS011;19087;51.062;3.754;2023-08-24T06:55:40;0.00;;;0.00;;
32697;SDS011;19087;51.062;3.754;2023-08-24T06:58:07;0.00;;;0.00;;
32697;SDS011;19087;51.062;3.754;2023-08-24T07:00:33;0.00;;;0.00;;
32697;SDS011;19087;51.062;3.754;2023-08-24T07:03:03;0.00;;;0.00;;
32697;SDS011;19087;51.062;3.754;2023-08-24T07:05:31;0.10;;;0.10;;
32697;SDS011;19087;51.062;3.754;2023-08-24T07:10:25;0.00;;;0.00;;
32697;SDS011;19087;51.062;3.754;2023-08-24T07:12:51;0.00;;;0.00;;
32697;SDS011;19087;51.062;3.754;2023-08-24T07:15:18;0.00;;;0.00;;
32697;SDS011;19087;51.062;3.754;2023-08-24T07:17:44;0.00;;;0.00;;
32697;SDS011;19087;51.062;3.754;2023-08-24T07:20:10;0.03;;;0.03;;
32697;SDS011;19087;51.062;3.754;2023-08-24T07:22:40;0.00;;;0.00;;
32697;SDS011;19087;51.062;3.754;2023-08-24T07:25:06;0.00;;;0.00;;
32697;SDS011;19087;51.062;3.754;2023-08-24T07:27:33;0.00;;;0.00;;
32697;SDS011;19087;51.062;3.754;2023-08-24T07:30:03;0.00;;;0.00;;
32697;SDS011;19087;51.062;3.754;2023-08-24T07:32:30;0.10;;;0.10;;
32697;SDS011;19087;51.062;3.754;2023-08-24T07:34:57;0.08;;;0.08;;
32697;SDS011;19087;51.062;3.754;2023-08-24T07:37:24;0.10;;;0.10;;
32697;SDS011;19087;51.062;3.754;2023-08-24T07:39:51;0.10;;;0.10;;
32697;SDS011;19087;51.062;3.754;2023-08-24T07:42:20;0.10;;;0.10;;
32697;SDS011;19087;51.062;3.754;2023-08-24T07:44:46;0.00;;;0.00;;
32697;SDS011;19087;51.062;3.754;2023-08-24T07:47:14;0.00;;;0.00;;
32697;SDS011;19087;51.062;3.754;2023-08-24T07:49:43;0.10;;;0.10;;
32697;SDS011;19087;51.062;3.754;2023-08-24T07:54:39;0.10;;;0.10;;
32697;SDS011;19087;51.062;3.754;2023-08-24T07:57:05;0.00;;;0.00;;
32697;SDS011;19087;51.062;3.754;2023-08-24T07:59:32;0.00;;;0.00;;
32697;SDS011;19087;51.062;3.754;2023-08-24T08:01:58;0.10;;;0.10;;
32697;SDS011;19087;51.062;3.754;2023-08-24T08:04:25;0.10;;;0.10;;
32697;SDS011;19087;51.062;3.754;2023-08-24T08:06:51;0.00;;;0.00;;
32697;SDS011;19087;51.062;3.754;2023-08-24T08:09:19;0.10;;;0.10;;
32697;SDS011;19087;51.062;3.754;2023-08-24T08:11:45;0.10;;;0.10;;
32697;SDS011;19087;51.062;3.754;2023-08-24T08:14:11;0.10;;;0.10;;
32697;SDS011;19087;51.062;3.754;2023-08-24T08:16:37;0.10;;;0.10;;
32697;SDS011;19087;51.062;3.754;2023-08-24T08:19:04;0.03;;;0.03;;
32697;SDS011;19087;51.062;3.754;2023-08-24T08:21:33;0.00;;;0.00;;
32697;SDS011;19087;51.062;3.754;2023-08-24T08:24:02;0.00;;;0.00;;
32697;SDS011;19087;51.062;3.754;2023-08-24T08:29:00;0.10;;;0.10;;
32697;SDS011;19087;51.062;3.754;2023-08-24T08:31:26;0.10;;;0.10;;
32697;SDS011;19087;51.062;3.754;2023-08-24T08:33:52;0.10;;;0.10;;
32697;SDS011;19087;51.062;3.754;2023-08-24T08:36:19;0.10;;;0.10;;
32697;SDS011;19087;51.062;3.754;2023-08-24T08:38:48;0.00;;;0.00;;
32697;SDS011;19087;51.062;3.754;2023-08-24T08:41:17;0.10;;;0.10;;
32697;SDS011;19087;51.062;3.754;2023-08-24T08:43:48;0.10;;;0.10;;
32697;SDS011;19087;51.062;3.754;2023-08-24T08:46:14;0.05;;;0.05;;
32697;SDS011;19087;51.062;3.754;2023-08-24T08:48:41;0.10;;;0.10;;
32697;SDS011;19087;51.062;3.754;2023-08-24T08:51:08;0.10;;;0.10;;
32697;SDS011;19087;51.062;3.754;2023-08-24T08:53:35;0.10;;;0.10;;
32697;SDS011;19087;51.062;3.754;2023-08-24T08:56:01;0.10;;;0.10;;
32697;SDS011;19087;51.062;3.754;2023-08-24T08:58:29;0.10;;;0.10;;
32697;SDS011;19087;51.062;3.754;2023-08-24T09:00:57;0.10;;;0.10;;
32697;SDS011;19087;51.062;3.754;2023-08-24T09:03:28;0.10;;;0.10;;
32697;SDS011;19087;51.062;3.754;2023-08-24T09:05:57;0.10;;;0.10;;
32697;SDS011;19087;51.062;3.754;2023-08-24T09:08:23;0.10;;;0.10;;
32697;SDS011;19087;51.062;3.754;2023-08-24T09:10:58;0.10;;;0.10;;
32697;SDS011;19087;51.062;3.754;2023-08-24T09:13:25;0.10;;;0.10;;
32697;SDS011;19087;51.062;3.754;2023-08-24T09:15:51;0.10;;;0.10;;
32697;SDS011;19087;51.062;3.754;2023-08-24T09:18:20;0.10;;;0.10;;
32697;SDS011;19087;51.062;3.754;2023-08-24T09:20:47;0.10;;;0.10;;
32697;SDS011;19087;51.062;3.754;2023-08-24T09:23:19;0.10;;;0.10;;
32697;SDS011;19087;51.062;3.754;2023-08-24T09:25:48;0.10;;;0.10;;
32697;SDS011;19087;51.062;3.754;2023-08-24T09:28:19;0.10;;;0.10;;
32697;SDS011;19087;51.062;3.754;2023-08-24T09:30:54;0.10;;;0.10;;
32697;SDS011;19087;51.062;3.754;2023-08-24T09:33:23;0.10;;;0.10;;
32697;SDS011;19087;51.062;3.754;2023-08-24T09:35:54;0.10;;;0.10;;
32697;SDS011;19087;51.062;3.754;2023-08-24T09:38:26;0.10;;;0.10;;
32697;SDS011;19087;51.062;3.754;2023-08-24T09:40:54;0.10;;;0.10;;
32697;SDS011;19087;51.062;3.754;2023-08-24T09:43:21;0.10;;;0.10;;
32697;SDS011;19087;51.062;3.754;2023-08-24T09:48:28;0.10;;;0.10;;
32697;SDS011;19087;51.062;3.754;2023-08-24T09:50:56;0.10;;;0.10;;
32697;SDS011;19087;51.062;3.754;2023-08-24T09:53:23;0.10;;;0.10;;
32697;SDS011;19087;51.062;3.754;2023-08-24T09:55:53;0.10;;;0.10;;
32697;SDS011;19087;51.062;3.754;2023-08-24T09:58:22;0.10;;;0.10;;
32697;SDS011;19087;51.062;3.754;2023-08-24T10:00:49;0.10;;;0.10;;
32697;SDS011;19087;51.062;3.754;2023-08-24T10:03:17;0.10;;;0.10;;
32697;SDS011;19087;51.062;3.754;2023-08-24T10:05:53;0.10;;;0.10;;
32697;SDS011;19087;51.062;3.754;2023-08-24T10:08:27;0.10;;;0.10;;
32697;SDS011;19087;51.062;3.754;2023-08-24T10:11:00;0.10;;;0.10;;
32697;SDS011;19087;51.062;3.754;2023-08-24T10:13:33;0.10;;;0.10;;
32697;SDS011;19087;51.062;3.754;2023-08-24T10:16:07;0.10;;;0.10;;
32697;SDS011;19087;51.062;3.754;2023-08-24T10:18:36;0.10;;;0.10;;
32697;SDS011;19087;51.062;3.754;2023-08-24T10:21:02;0.10;;;0.10;;
32697;SDS011;19087;51.062;3.754;2023-08-24T10:23:29;0.10;;;0.10;;
32697;SDS011;19087;51.062;3.754;2023-08-24T10:25:56;0.10;;;0.10;;
32697;SDS011;19087;51.062;3.754;2023-08-24T10:28:24;0.10;;;0.10;;
32697;SDS011;19087;51.062;3.754;2023-08-24T10:30:51;0.10;;;0.10;;
32697;SDS011;19087;51.062;3.754;2023-08-24T10:33:19;0.10;;;0.10;;
32697;SDS011;19087;51.062;3.754;2023-08-24T10:35:47;0.10;;;0.10;;
32697;SDS011;19087;51.062;3.754;2023-08-24T10:38:23;0.10;;;0.10;;
32697;SDS011;19087;51.062;3.754;2023-08-24T10:40:50;0.00;;;0.00;;
32697;SDS011;19087;51.062;3.754;2023-08-24T10:43:17;0.00;;;0.00;;
32697;SDS011;19087;51.062;3.754;2023-08-24T10:45:59;0.10;;;0.10;;
32697;SDS011;19087;51.062;3.754;2023-08-24T10:48:30;0.00;;;0.00;;
32697;SDS011;19087;51.062;3.754;2023-08-24T10:51:23;0.00;;;0.00;;
32697;SDS011;19087;51.062;3.754;2023-08-24T10:56:19;0.00;;;0.00;;
32697;SDS011;19087;51.062;3.754;2023-08-24T10:58:45;0.00;;;0.00;;
32697;SDS011;19087;51.062;3.754;2023-08-24T11:01:15;0.00;;;0.00;;
32697;SDS011;19087;51.062;3.754;2023-08-24T11:03:50;0.00;;;0.00;;
32697;SDS011;19087;51.062;3.754;2023-08-24T11:06:22;0.10;;;0.10;;
32697;SDS011;19087;51.062;3.754;2023-08-24T11:09:04;0.00;;;0.00;;
32697;SDS011;19087;51.062;3.754;2023-08-24T11:12:00;0.00;;;0.00;;
32697;SDS011;19087;51.062;3.754;2023-08-24T11:14:28;0.10;;;0.10;;
32697;SDS011;19087;51.062;3.754;2023-08-24T11:16:59;0.00;;;0.00;;
32697;SDS011;19087;51.062;3.754;2023-08-24T11:19:28;0.00;;;0.00;;
32697;SDS011;19087;51.062;3.754;2023-08-24T11:21:55;0.00;;;0.00;;
32697;SDS011;19087;51.062;3.754;2023-08-24T11:24:21;0.00;;;0.00;;
32697;SDS011;19087;51.062;3.754;2023-08-24T11:26:48;0.00;;;0.00;;
32697;SDS011;19087;51.062;3.754;2023-08-24T11:29:14;0.00;;;0.00;;
32697;SDS011;19087;51.062;3.754;2023-08-24T11:31:40;0.00;;;0.00;;
32697;SDS011;19087;51.062;3.754;2023-08-24T11:34:07;0.00;;;0.00;;
32697;SDS011;19087;51.062;3.754;2023-08-24T11:39:14;0.00;;;0.00;;
32697;SDS011;19087;51.062;3.754;2023-08-24T11:41:45;0.00;;;0.00;;
32697;SDS011;19087;51.062;3.754;2023-08-24T11:44:22;0.10;;;0.10;;
32697;SDS011;19087;51.062;3.754;2023-08-24T11:46:50;0.00;;;0.00;;
32697;SDS011;19087;51.062;3.754;2023-08-24T11:49:17;0.00;;;0.00;;
32697;SDS011;19087;51.062;3.754;2023-08-24T11:51:45;0.00;;;0.00;;
32697;SDS011;19087;51.062;3.754;2023-08-24T11:54:16;0.00;;;0.00;;
32697;SDS011;19087;51.062;3.754;2023-08-24T11:56:46;0.00;;;0.00;;
32697;SDS011;19087;51.062;3.754;2023-08-24T11:59:13;0.00;;;0.00;;
32697;SDS011;19087;51.062;3.754;2023-08-24T12:01:43;0.00;;;0.00;;
32697;SDS011;19087;51.062;3.754;2023-08-24T12:04:11;0.00;;;0.00;;
32697;SDS011;19087;51.062;3.754;2023-08-24T12:06:37;0.00;;;0.00;;
32697;SDS011;19087;51.062;3.754;2023-08-24T12:09:05;0.00;;;0.00;;
32697;SDS011;19087;51.062;3.754;2023-08-24T12:11:35;0.00;;;0.00;;
32697;SDS011;19087;51.062;3.754;2023-08-24T12:14:07;0.00;;;0.00;;
32697;SDS011;19087;51.062;3.754;2023-08-24T12:16:42;0.00;;;0.00;;
32697;SDS011;19087;51.062;3.754;2023-08-24T12:19:08;0.00;;;0.00;;
32697;SDS011;19087;51.062;3.754;2023-08-24T12:21:41;0.00;;;0.00;;
32697;SDS011;19087;51.062;3.754;2023-08-24T12:24:13;0.00;;;0.00;;
32697;SDS011;19087;51.062;3.754;2023-08-24T12:26:39;0.00;;;0.00;;
32697;SDS011;19087;51.062;3.754;2023-08-24T12:29:05;0.00;;;0.00;;
32697;SDS011;19087;51.062;3.754;2023-08-24T12:31:33;0.00;;;0.00;;
32697;SDS011;19087;51.062;3.754;2023-08-24T12:34:03;0.00;;;0.00;;
32697;SDS011;19087;51.062;3.754;2023-08-24T12:36:31;0.00;;;0.00;;
32697;SDS011;19087;51.062;3.754;2023-08-24T12:38:58;0.00;;;0.00;;
32697;SDS011;19087;51.062;3.754;2023-08-24T12:41:27;0.10;;;0.10;;
32697;SDS011;19087;51.062;3.754;2023-08-24T12:43:57;0.00;;;0.00;;
32697;SDS011;19087;51.062;3.754;2023-08-24T12:46:24;0.00;;;0.00;;
32697;SDS011;19087;51.062;3.754;2023-08-24T12:48:51;0.00;;;0.00;;
32697;SDS011;19087;51.062;3.754;2023-08-24T12:51:16;0.00;;;0.00;;
32697;SDS011;19087;51.062;3.754;2023-08-24T12:53:43;0.00;;;0.00;;
32697;SDS011;19087;51.062;3.754;2023-08-24T12:56:13;0.00;;;0.00;;
32697;SDS011;19087;51.062;3.754;2023-08-24T12:58:39;0.00;;;0.00;;
32697;SDS011;19087;51.062;3.754;2023-08-24T13:01:06;0.05;;;0.05;;
32697;SDS011;19087;51.062;3.754;2023-08-24T13:03:33;0.00;;;0.00;;
32697;SDS011;19087;51.062;3.754;2023-08-24T13:06:01;0.00;;;0.00;;
32697;SDS011;19087;51.062;3.754;2023-08-24T13:08:29;0.00;;;0.00;;
32697;SDS011;19087;51.062;3.754;2023-08-24T13:10:57;0.00;;;0.00;;
32697;SDS011;19087;51.062;3.754;2023-08-24T13:13:25;0.00;;;0.00;;
32697;SDS011;19087;51.062;3.754;2023-08-24T13:18:22;0.00;;;0.00;;
32697;SDS011;19087;51.062;3.754;2023-08-24T13:20:47;0.00;;;0.00;;
32697;SDS011;19087;51.062;3.754;2023-08-24T13:23:14;0.00;;;0.00;;
32697;SDS011;19087;51.062;3.754;2023-08-24T13:25:40;0.00;;;0.00;;
32697;SDS011;19087;51.062;3.754;2023-08-24T13:28:06;0.00;;;0.00;;
32697;SDS011;19087;51.062;3.754;2023-08-24T13:30:34;0.00;;;0.00;;
32697;SDS011;19087;51.062;3.754;2023-08-24T13:33:02;0.00;;;0.00;;
32697;SDS011;19087;51.062;3.754;2023-08-24T13:37:57;0.00;;;0.00;;
32697;SDS011;19087;51.062;3.754;2023-08-24T13:40:24;0.00;;;0.00;;
32697;SDS011;19087;51.062;3.754;2023-08-24T13:42:50;0.00;;;0.00;;
32697;SDS011;19087;51.062;3.754;2023-08-24T13:45:16;0.00;;;0.00;;
32697;SDS011;19087;51.062;3.754;2023-08-24T13:47:42;0.00;;;0.00;;
32697;SDS011;19087;51.062;3.754;2023-08-24T13:50:08;0.00;;;0.00;;
32697;SDS011;19087;51.062;3.754;2023-08-24T13:52:34;0.00;;;0.00;;
32697;SDS011;19087;51.062;3.754;2023-08-24T13:55:01;0.00;;;0.00;;
32697;SDS011;19087;51.062;3.754;2023-08-24T13:57:28;0.00;;;0.00;;
32697;SDS011;19087;51.062;3.754;2023-08-24T13:59:55;0.00;;;0.00;;
32697;SDS011;19087;51.062;3.754;2023-08-24T14:02:22;0.00;;;0.00;;
32697;SDS011;19087;51.062;3.754;2023-08-24T14:04:48;0.00;;;0.00;;
32697;SDS011;19087;51.062;3.754;2023-08-24T14:07:13;0.00;;;0.00;;
32697;SDS011;19087;51.062;3.754;2023-08-24T14:09:40;0.00;;;0.00;;
32697;SDS011;19087;51.062;3.754;2023-08-24T14:12:07;0.00;;;0.00;;
32697;SDS011;19087;51.062;3.754;2023-08-24T14:14:33;0.00;;;0.00;;
32697;SDS011;19087;51.062;3.754;2023-08-24T14:17:00;0.00;;;0.00;;
32697;SDS011;19087;51.062;3.754;2023-08-24T14:19:27;0.00;;;0.00;;
32697;SDS011;19087;51.062;3.754;2023-08-24T14:21:53;0.00;;;0.00;;
32697;SDS011;19087;51.062;3.754;2023-08-24T14:24:18;0.00;;;0.00;;
32697;SDS011;19087;51.062;3.754;2023-08-24T14:26:44;0.00;;;0.00;;
32697;SDS011;19087;51.062;3.754;2023-08-24T14:29:18;0.00;;;0.00;;
32697;SDS011;19087;51.062;3.754;2023-08-24T14:31:44;0.00;;;0.00;;
32697;SDS011;19087;51.062;3.754;2023-08-24T14:34:10;0.00;;;0.00;;
32697;SDS011;19087;51.062;3.754;2023-08-24T14:36:43;0.10;;;0.10;;
32697;SDS011;19087;51.062;3.754;2023-08-24T14:39:10;0.10;;;0.10;;
32697;SDS011;19087;51.062;3.754;2023-08-24T14:41:36;0.00;;;0.00;;
32697;SDS011;19087;51.062;3.754;2023-08-24T14:44:03;0.00;;;0.00;;
32697;SDS011;19087;51.062;3.754;2023-08-24T14:46:29;0.00;;;0.00;;
32697;SDS011;19087;51.062;3.754;2023-08-24T14:48:55;0.03;;;0.03;;
32697;SDS011;19087;51.062;3.754;2023-08-24T14:51:21;0.00;;;0.00;;
32697;SDS011;19087;51.062;3.754;2023-08-24T14:53:47;0.00;;;0.00;;
32697;SDS011;19087;51.062;3.754;2023-08-24T14:56:14;0.00;;;0.00;;
32697;SDS011;19087;51.062;3.754;2023-08-24T14:58:40;0.00;;;0.00;;
32697;SDS011;19087;51.062;3.754;2023-08-24T15:01:06;0.00;;;0.00;;
32697;SDS011;19087;51.062;3.754;2023-08-24T15:03:32;0.00;;;0.00;;
32697;SDS011;19087;51.062;3.754;2023-08-24T15:05:58;0.10;;;0.10;;
32697;SDS011;19087;51.062;3.754;2023-08-24T15:08:32;0.00;;;0.00;;
32697;SDS011;19087;51.062;3.754;2023-08-24T15:10:58;0.00;;;0.00;;
32697;SDS011;19087;51.062;3.754;2023-08-24T15:13:26;0.00;;;0.00;;
32697;SDS011;19087;51.062;3.754;2023-08-24T15:15:53;0.00;;;0.00;;
32697;SDS011;19087;51.062;3.754;2023-08-24T15:18:21;0.00;;;0.00;;
32697;SDS011;19087;51.062;3.754;2023-08-24T15:20:47;0.00;;;0.00;;